Weather observations for the past three days for
Perryton, Perryton Ochiltree County Airport
Imperial (Metric)
Date Time (cdt) Wind (mph) Vis. (mi.) Weather Sky Cond. Temperature (ºF) Relative Humidity Wind Chill (°F) Heat Index (°F) Pressure Precipitation (in)
Air Dwpt 6 hour altimeter (in) sea level (mb) 1 hr 3 hr 6 hr
Max. Min.
05 20:35 E 13 G 17 10.00 Overcast OVC034 51.1 37.8 61% 29.88 0.0
05 20:15 NE 14 G 18 10.00 Overcast OVC034 51.3 37.4 59% 29.86 0.0
05 19:55 NE 13 G 20 10.00 Overcast OVC034 51.8 37.2 58% 29.86 0.0
05 19:35 E 13 10.00 Overcast OVC034 52.2 36.7 56% 29.87 0.0
05 19:15 E 9 10.00 Overcast OVC036 52.2 36.5 55% 29.88 0.0
05 18:55 E 12 10.00 Overcast OVC036 52.7 36.3 56.3 52.3 54% 29.88 0.0
05 18:35 E 10 10.00 Overcast OVC036 52.7 36.3 54% 29.88 0.0
05 18:15 E 9 10.00 Overcast OVC036 52.5 36 53% 29.89 0.0
05 17:55 E 9 10.00 Overcast OVC036 52.7 36 53% 29.88 0.0
05 17:35 NE 12 G 18 10.00 Overcast OVC036 53.1 35.6 52% 29.87 0.0
05 17:15 E 15 10.00 Overcast OVC036 53.2 35.1 50% 29.86 0.0
05 16:55 NE 15 10.00 Overcast OVC036 54 34.9 49% 29.86 0.0
05 16:35 NE 15 G 23 10.00 Overcast OVC036 54.9 34.3 46% 29.86 0.0
05 16:15 NE 17 G 22 10.00 Overcast OVC036 54.9 34 45% 29.86 0.0
05 15:55 NE 14 G 18 10.00 Overcast OVC038 55.4 33.8 44% 29.88 0.0
05 15:35 NE 15 G 18 10.00 Overcast OVC038 54.7 33.6 45% 29.88 0.0
05 15:15 NE 10 G 20 10.00 Overcast OVC040 55.6 33.8 44% 29.88 0.0
05 14:55 NE 15 G 21 10.00 Overcast OVC040 54.9 33.8 45% 29.89 0.0
05 14:35 NE 10 G 21 10.00 Overcast OVC038 54.5 34 46% 29.89 0.0
05 14:15 NE 14 G 22 10.00 Overcast OVC036 55.4 33.8 44% 29.88 0.0
05 13:55 NE 16 G 23 10.00 Overcast OVC036 55.9 33.6 43% 29.87 0.0
05 13:35 N 14 G 23 10.00 Overcast OVC036 55.6 33.6 44% 29.88 0.0
05 13:15 NE 16 G 23 10.00 Overcast OVC036 55.8 33.6 43% 29.89 0.0
05 12:55 NE 15 G 23 10.00 Overcast OVC036 56.3 33.3 56.3 53.1 42% 29.88 0.0
05 12:35 NE 15 10.00 Overcast OVC034 55.8 33.4 43% 29.88 0.0
05 12:15 NE 20 10.00 Overcast OVC034 55.2 33.1 43% 29.88 0.0
05 11:55 NE 15 10.00 Overcast OVC034 54.7 32.9 44% 29.88 0.0
05 11:35 N 20 G 25 10.00 Overcast OVC034 55.4 32.9 43% 29.88 0.0
05 11:15 N 18 G 22 10.00 Overcast OVC034 54.3 32.7 44% 29.88 0.0
05 10:55 NE 21 G 29 10.00 Overcast and Breezy OVC036 54 32.5 44% 29.86 0.0
05 10:35 N 17 G 29 10.00 Overcast OVC036 54.5 32.5 43% 29.86 0.0
05 10:15 N 22 G 29 10.00 Overcast and Breezy OVC032 54.5 32.7 44% 29.86 0.0
05 09:55 NE 24 G 29 10.00 Overcast and Breezy BKN032 OVC055 54.9 32.4 43% 29.85 0.0
05 09:35 NE 22 G 29 10.00 Overcast and Breezy OVC032 53.6 32 44% 29.84 0.0
05 09:15 N 16 G 24 10.00 Overcast OVC030 53.2 32 45% 29.84 0.0
05 08:55 N 20 G 29 10.00 Overcast OVC030 53.6 32.9 46% 29.83 0.0
05 08:35 NE 25 G 33 10.00 Overcast and Breezy OVC028 53.6 33.1 46% 29.8 0.0
05 08:15 NE 24 G 32 10.00 Overcast and Breezy OVC026 53.6 33.8 47% 29.8 0.0
05 07:55 NE 24 G 32 10.00 Overcast and Breezy OVC026 54 34 47% 29.78 0.0
05 07:35 NE 29 G 38 10.00 Overcast and Windy OVC026 54.1 34 47% 29.76 0.0
05 07:15 NE 22 G 31 10.00 Overcast and Breezy OVC026 54.5 33.8 46% 29.77 0.0
05 06:55 NE 29 G 37 10.00 Overcast and Windy OVC026 54.7 33.8 68.7 54.7 45% 29.74 0.0
05 06:35 NE 22 G 31 10.00 Overcast and Breezy OVC026 55 33.8 45% 29.73 0.0
05 06:15 N 23 G 33 10.00 Overcast and Breezy OVC026 55.6 34 44% 29.73 0.0
05 05:55 N 23 G 33 10.00 Overcast and Breezy OVC026 56.3 34.9 45% 29.73 0.0
05 05:35 N 22 G 35 10.00 Overcast and Breezy OVC026 57 35.2 44% 29.71 0.0
05 05:15 N 21 G 33 10.00 Overcast and Breezy OVC024 59 36.9 44% 29.7 0.0
05 04:55 N 24 G 37 10.00 Overcast and Breezy OVC022 59.9 38.1 45% 29.68 0.0
05 04:35 N 18 G 28 10.00 Overcast OVC022 59.9 40.5 49% 29.66 0.0
05 04:15 NE 21 G 26 10.00 Mostly Cloudy and Breezy BKN020 BKN025 60.4 42.8 52% 29.63 0.0
05 03:55 N 21 G 25 10.00 Partly Cloudy and Breezy SCT018 60.4 44.4 56% 29.62 0.0
05 03:35 N 18 G 24 10.00 Fair CLR 61.5 46.8 59% 29.61 0.0
05 03:15 N 21 G 26 10.00 Fair and Breezy CLR 62.8 50.4 64% 29.59 0.0
05 02:55 NE 10 10.00 Fair CLR 63 48.9 60% 29.58 0.0
05 02:35 NE 13 10.00 Fair CLR 64.6 45.5 50% 29.58 0.0
05 02:15 NW 12 G 22 10.00 Fair CLR 59 25.7 28% 29.56 0.0
05 01:55 SW 6 10.00 Fair CLR 61.5 25.7 26% 29.55 0.0
05 01:35 W 7 10.00 Fair CLR 64.4 26.4 24% 29.56 0.0
05 01:15 W 3 10.00 Fair CLR 65.3 27.3 24% 29.56 0.0
05 00:55 NW 6 10.00 Fair CLR 69.3 26.8 86.4 60.3 20% 29.56 0.0
05 00:35 SW 3 10.00 Fair CLR 66 30.7 27% 29.57 0.0
05 00:15 SW 7 10.00 Fair CLR 61.3 32 33% 29.56 0.0
04 23:55 SW 8 10.00 Fair CLR 63.1 32 31% 29.56 0.0
04 23:35 SW 8 10.00 Fair CLR 63.5 32 31% 29.56 0.0
04 23:15 SW 8 10.00 Fair CLR 64.6 32 30% 29.56 0.0
04 22:55 SW 7 10.00 Fair CLR 66.9 31.6 27% 29.57 0.0
04 22:35 SW 8 10.00 Fair CLR 68 32.9 27% 29.56 0.0
04 22:15 SW 8 10.00 Fair CLR 68.9 32 25% 29.56 0.0
04 21:55 SW 9 10.00 Fair CLR 69.6 32.4 25% 29.56 0.0
04 21:35 SW 7 10.00 NULL NULL 69.8 32 25% 29.56 0.0
04 21:15 SW 7 10.00 Fair CLR 70.7 32 24% 29.56 0.0
04 20:55 SW 8 10.00 Fair CLR 72.5 30.4 21% 29.56 0.0
04 20:35 SW 7 10.00 Fair CLR 78.4 28.6 16% 77 29.56 0.0
04 20:15 SW 8 10.00 Fair CLR 82.6 28.2 14% 80 29.56 0.0
04 19:55 W 7 10.00 Fair CLR 85.1 30 14% 82 29.56 0.0
04 19:35 SW 8 10.00 Fair CLR 85.8 31.8 14% 83 29.56 0.0
04 19:15 SW 15 10.00 Fair CLR 86 30.9 14% 83 29.57 0.0
04 18:55 SW 15 G 22 10.00 Fair CLR 86.7 30 90.9 86 13% 83 29.57 0.0 0.01
04 18:35 W 17 G 23 10.00 Fair CLR 86.9 27.5 12% 83 29.58 0.0
04 18:15 SW 18 G 26 10.00 Fair CLR 87.1 28.8 12% 83 29.58 0.0
04 17:55 SW 22 G 28 10.00 Fair and Breezy CLR 87.3 29.7 12% 84 29.57 0.0
04 17:35 SW 16 G 22 10.00 Fair CLR 87.8 30.4 13% 84 29.58 0.0
04 17:15 W 17 10.00 Fair CLR 87.8 31.1 13% 84 29.58 0.0
04 16:55 SW 10 G 20 10.00 Fair CLR 88.3 31.6 13% 85 29.58 0.0 0.01
04 16:35 SW 14 10.00 Fair CLR 88.7 30.7 12% 85 29.59 0.0 0.01
04 16:15 W 20 10.00 Fair CLR 89.4 29.8 12% 85 29.59 0.0
04 15:55 W 18 G 30 10.00 Fair CLR 90.9 30.7 12% 87 29.6 0.0
04 15:35 W 7 G 12 10.00 Fair CLR 90.1 30.9 12% 86 29.61 0.0
04 15:15 NW 5 10.00 Fair CLR 89.6 28.2 11% 86 29.62 0.0
04 14:55 Calm 10.00 Fair CLR 87.6 27.3 11% 84 29.63 0.0
04 14:35 W 9 10.00 Fair CLR 88.3 27.5 11% 85 29.64 0.0
04 14:15 SW 8 10.00 Fair CLR 88.2 27.3 11% 84 29.65 0.0
04 13:55 SW 6 10.00 Fair CLR 87.4 27.5 11% 84 29.66 0.0
04 13:35 W 10 10.00 Fair CLR 87.4 27.7 11% 84 29.67 0.0
04 13:15 W 10 10.00 Fair CLR 86.7 26.4 11% 83 29.69 0.0
04 12:55 W 10 10.00 Fair CLR 86.7 26.1 86.9 58.1 11% 83 29.69 0.0
04 12:35 NW 10 G 16 10.00 Fair CLR 85.5 27 12% 82 29.7 0.0
04 12:15 NW 12 10.00 Fair CLR 84.7 28 13% 82 29.71 0.0
04 11:55 NW 15 10.00 Fair CLR 83.7 27.7 13% 81 29.71 0.0
04 11:35 W 16 10.00 Fair CLR 82.6 28.8 14% 80 29.71 0.0
04 11:15 W 15 10.00 Fair CLR 80.2 29.3 16% 79 29.72 0.0
04 10:55 NW 16 10.00 Fair CLR 78.6 30.9 17% 78 29.72 0.0
04 10:35 W 16 10.00 Fair CLR 75.4 32 20% 76 29.72 0.0
04 10:15 W 17 10.00 Fair CLR 72.3 33.8 24% 29.72 0.0
04 09:55 W 17 10.00 Fair CLR 70.2 34.3 27% 29.72 0.0
04 09:35 NW 15 10.00 Fair CLR 68.2 35.4 30% 29.72 0.0
04 09:15 W 15 10.00 Fair CLR 66.6 34.9 31% 29.71 0.0
04 08:55 W 14 10.00 Fair CLR 64.4 38.5 39% 29.72 0.0
04 08:35 W 9 10.00 Fair CLR 61.9 40.5 46% 29.72 0.0
04 08:15 SW 6 10.00 Fair CLR 59.9 41.7 51% 29.72 0.0
04 07:55 SW 5 10.00 Fair CLR 59.4 41.5 52% 29.7 0.0
04 07:35 W 8 10.00 Fair CLR 59 42.3 54% 29.7 0.0
04 07:15 SW 8 10.00 Fair CLR 58.1 42.8 57% 29.7 0.0
04 06:55 SW 9 10.00 Fair CLR 58.5 42.8 64.8 57 56% 29.7 0.0
04 06:35 SW 6 10.00 Fair CLR 57.6 42.1 56% 29.7 0.0
04 06:15 S 8 10.00 Fair CLR 57.2 41.9 57% 29.7 0.0
04 05:55 S 9 10.00 Fair CLR 58.5 41.9 54% 29.7 0.0
04 05:35 S 10 10.00 Fair CLR 59 41.9 53% 29.7 0.0
04 05:15 S 13 10.00 Fair CLR 59.9 41.5 51% 29.71 0.0
04 04:55 S 14 10.00 Fair CLR 61.7 41.4 47% 29.72 0.0
04 04:35 S 16 10.00 Fair CLR 62.1 41.4 47% 29.72 0.0
04 04:15 SW 16 10.00 Fair CLR 62.4 41 46% 29.72 0.0
04 03:55 S 17 10.00 Fair CLR 61.7 40.6 46% 29.72 0.0
04 03:35 S 13 10.00 Fair CLR 61.3 40.3 46% 29.73 0.0
04 03:15 S 13 10.00 Fair CLR 62.2 40.1 44% 29.74 0.0
04 02:55 S 13 10.00 Fair CLR 62.8 40.1 43% 29.75 0.0
04 02:35 S 12 10.00 Fair CLR 63 40.1 43% 29.76 0.0
04 02:15 S 14 10.00 Fair CLR 63.9 40.1 42% 29.77 0.0
04 01:55 S 15 10.00 Fair CLR 64.8 40.1 41% 29.78 0.0
04 01:15 S 13 10.00 Fair CLR 64.6 39.4 40% 29.79 0.0
04 00:55 S 13 G 20 10.00 Fair CLR 64.4 38.8 83.7 64.4 39% 29.79 0.0
04 00:35 S 13 10.00 Fair CLR 65.7 38.3 37% 29.79 0.0
04 00:15 S 17 10.00 NULL NULL 67.1 37.9 34% 29.79 0.0
03 23:55 S 17 10.00 Fair CLR 67.6 37.4 33% 29.79 0.0
03 23:35 S 14 10.00 Fair CLR 67.8 36.7 32% 29.79 0.0
03 23:15 S 14 10.00 Fair CLR 68 36.1 31% 29.8 0.0
03 22:55 S 14 10.00 Fair CLR 68 34.3 29% 29.8 0.0
03 22:35 S 12 10.00 Fair CLR 66.9 30.7 26% 29.8 0.0
03 22:15 S 13 10.00 Fair CLR 67.1 29.3 24% 29.79 0.0
03 21:55 S 10 10.00 Fair CLR 68.4 28.6 23% 29.79 0.0
03 21:35 S 10 10.00 Fair CLR 70 29.3 22% 29.79 0.0
03 21:15 S 12 10.00 Fair CLR 72.1 30.2 21% 29.79 0.0
03 20:55 S 12 10.00 Fair CLR 74.5 30.9 20% 29.78 0.0
03 20:35 S 14 10.00 Fair CLR 76.1 29.5 18% 76 29.78 0.0
03 20:15 S 12 G 17 10.00 Fair CLR 78.4 28.4 16% 77 29.78 0.0
03 19:55 S 15 G 25 10.00 Fair CLR 80.8 27.9 14% 79 29.79 0.0
03 19:35 SW 16 G 25 10.00 Fair CLR 81.9 28.2 14% 80 29.79 0.0
03 19:15 SW 21 10.00 Fair and Breezy CLR 82.8 28.9 14% 80 29.8 0.0
03 18:55 S 15 G 24 10.00 Fair CLR 83.5 30.6 85.8 78.6 15% 81 29.8 0.0
03 18:35 SW 21 G 28 10.00 Fair and Breezy CLR 84.2 28.4 13% 81 29.81 0.0
03 18:15 S 18 G 30 10.00 Fair CLR 84.6 27.1 12% 82 29.81 0.0
03 17:55 S 21 G 26 10.00 Fair and Breezy CLR 85.6 27.9 12% 82 29.81 0.0
03 17:35 SW 17 G 25 10.00 Fair CLR 85.1 28.6 13% 82 29.82 0.0
03 17:15 SW 16 G 26 10.00 Fair CLR 84.6 28.8 13% 82 29.83 0.0
03 16:55 SW 17 G 26 10.00 Fair CLR 84.7 29.5 13% 82 29.84 0.0
03 16:35 S 13 G 24 10.00 Fair CLR 84.2 29.8 14% 81 29.85 0.0
03 16:15 SW 22 G 28 10.00 Fair and Breezy CLR 84.4 29.7 14% 81 29.87 0.0
03 15:55 SW 20 G 30 10.00 Fair CLR 84.6 29.3 13% 82 29.89 0.0
03 15:35 S 17 G 25 10.00 Fair CLR 84.6 31.1 14% 82 29.9 0.0
03 15:15 SW 21 G 28 10.00 Fair and Breezy CLR 83.1 31.1 15% 80 29.91 0.0
03 14:55 S 15 G 31 10.00 Fair CLR 82.4 31.6 16% 80 29.92 0.0
03 14:35 S 18 G 28 10.00 Fair CLR 81.5 32 17% 79 29.93 0.0
03 14:15 SW 14 G 30 10.00 Fair CLR 81 33.1 18% 79 29.94 0.0
03 13:55 S 16 G 30 10.00 Fair CLR 80.2 34.7 19% 79 29.95 0.0
03 13:35 S 15 G 31 10.00 Fair CLR 79.9 33.3 18% 78 29.97 0.0
03 13:15 S 21 G 30 10.00 Fair and Breezy CLR 79.7 33.4 19% 78 29.98 0.0
03 12:55 SW 24 G 28 10.00 Fair and Breezy CLR 78.6 34.2 78.6 50.9 20% 78 29.99 0.0
03 12:35 SW 21 G 26 10.00 Fair and Breezy CLR 77.5 33.6 20% 77 30.01 0.0
03 12:15 SW 20 G 28 10.00 Fair CLR 78.1 33.8 20% 77 30.02 0.0
03 11:55 SW 18 G 32 10.00 Fair CLR 76.3 34.2 22% 77 30.03 0.0
03 11:35 S 22 G 35 10.00 Fair and Breezy CLR 76.5 32.4 20% 77 30.03 0.0
03 11:15 S 26 G 32 10.00 Fair and Windy CLR 75.4 30 19% 76 30.04 0.0
03 10:55 SW 17 G 30 10.00 Fair CLR 74.3 28.4 18% 30.04 0.0
03 10:35 SW 22 G 26 10.00 Fair and Breezy CLR 74.1 32.4 22% 30.06 0.0
03 10:15 SW 20 G 25 10.00 Fair CLR 72.1 37.4 28% 30.06 0.0
03 09:55 SW 18 G 26 10.00 Fair CLR 70.5 38.7 31% 30.06 0.0
03 09:35 W 15 G 24 10.00 Fair CLR 68.7 39.9 35% 30.06 0.0
03 09:15 W 16 G 23 10.00 Fair CLR 66 40.8 40% 30.06 0.0
03 08:55 SW 13 G 18 10.00 Fair CLR 63 41 45% 30.06 0.0
03 08:35 SW 12 10.00 Fair CLR 60.8 41 48% 30.06 0.0
03 08:15 SW 10 10.00 Fair CLR 58.1 40.1 51% 30.06 0.0
03 07:55 W 10 10.00 Fair CLR 55.6 39.4 55% 30.06 0.0
03 07:35 SW 10 10.00 Fair CLR 53.4 38.3 57% 30.06 0.0
03 07:15 W 12 10.00 Fair CLR 0 0 0% 30.05 0.0
03 01:55 SE 7 10.00 Fair CLR 48 35.8 63% 45 30.08 0.0
03 01:35 SE 9 10.00 Fair CLR 49.3 36.1 61% 46 30.08 0.0
03 01:15 SE 8 10.00 Fair CLR 51.1 36.5 58% 30.08 0.0
03 00:55 SE 8 10.00 Fair CLR 52.3 35.6 75.4 51.8 53% 30.08 0.0
03 00:35 SE 10 10.00 Fair CLR 53.2 35.6 51% 30.08 0.0
03 00:15 SE 12 10.00 Fair CLR 52.2 34.5 51% 30.08 0.0
02 23:55 SE 10 10.00 Fair CLR 53.8 34.5 48% 30.09 0.0
02 23:35 SE 9 10.00 Fair CLR 54 33.8 47% 30.09 0.0
02 23:15 SE 8 10.00 Fair CLR 55.8 34.5 45% 30.09 0.0
02 22:55 SE 7 10.00 Fair CLR 55.2 33.4 44% 30.09 0.0
02 22:35 SE 8 10.00 Fair CLR 56.3 34.2 43% 30.09 0.0
02 22:15 E 8 10.00 Fair CLR 59.2 33.4 38% 30.08 0.0
02 21:55 SE 9 10.00 Fair CLR 59.9 33.6 37% 30.08 0.0
02 21:35 E 10 10.00 Fair CLR 61.3 32 33% 30.08 0.0
02 21:15 E 5 10.00 Fair CLR 64.8 29.7 27% 30.07 0.0
02 20:55 NE 5 7.00 Fair CLR 64.8 31.5 29% 30.06 0.0
Date Time (cdt) Wind (mph) Vis. (mi.) Weather Sky Cond. Air Dwpt Max. Min. Relative Humidity Wind Chill (°F) Heat Index (°F) altimeter (in) sea level (mb) 1 hr 3 hr 6 hr
6 hour
Temperature (ºF) Pressure Precipitation (in)